Latest Weather Observations for Bankstown

IDN60901

Issued at 4:42 am EDT Saturday 7 March 2015 (issued every 10 minutes, with the page automatically refreshed every 10 minutes)

About weather observations | Map of Sydney area stations | Latest observations for Sydney area | Other Formats
Station Details ID: 066137 Name: BANKSTOWN AIRPORT AWS Lat: -33.92 Lon: 150.99 Height: 6.5 m
Data from the previous 72 hours. | See also: Recent months at Bankstown
Date/Time
EDT
Tmp

°C
App
Tmp
°C
Dew
Point
°C
Rel
Hum
%
Delta-T

°C
Wind Press
QNH
hPa
Press
MSL
hPa
Rain
since
9 am
mm
Dir
 
Spd
km/h
Gust
km/h
Spd
kts
Gust
kts
07/04:30am 17.5 18.3 12.6 73 2.7 CALM 0 6 0 3 1010.6 1010.6 0.0
07/04:00am 17.7 18.5 12.4 71 2.9 CALM 0 0 0 0 1010.6 1010.6 0.0
07/03:30am 18.0 18.8 12.5 70 3.1 CALM 0 0 0 0 1010.3 1010.3 0.0
07/03:00am 18.3 18.0 12.7 70 3.1 S 6 6 3 3 1010.1 1010.1 0.0
07/02:30am 18.3 19.3 13.2 72 2.9 CALM 0 0 0 0 1010.0 1010.0 0.0
07/02:00am 17.2 18.0 12.5 74 2.6 CALM 0 0 0 0 1010.3 1010.3 0.0
07/01:30am 17.9 18.9 13.2 74 2.6 CALM 0 0 0 0 1010.1 1010.1 0.0
07/01:00am 16.9 17.5 12.0 73 2.7 CALM 0 0 0 0 1010.4 1010.4 0.0
07/12:30am 18.2 18.8 12.0 67 3.4 CALM 0 0 0 0 1010.0 1010.0 0.0
 
Date/Time
EDT
Tmp

°C
App
Tmp
°C
Dew
Point
°C
Rel
Hum
%
Delta-T

°C
Wind Press
QNH
hPa
Press
MSL
hPa
Rain
since
9 am
mm
Dir
 
Spd
km/h
Gust
km/h
Spd
kts
Gust
kts
06/11:30pm 18.6 17.8 11.2 62 4.0 S 6 7 3 4 1009.7 1009.7 0.0
06/11:00pm 20.2 19.6 11.7 58 4.7 SSE 6 7 3 4 1009.5 1009.5 0.0
06/10:30pm 19.8 18.5 10.0 53 5.3 S 7 11 4 6 1009.3 1009.3 0.0
06/10:00pm 21.6 19.4 10.7 50 6.0 SE 13 15 7 8 1008.8 1008.8 0.0
06/09:30pm 21.4 19.5 9.0 45 6.6 SSE 9 13 5 7 1008.5 1008.5 0.0
06/09:00pm 22.8 20.1 8.9 41 7.4 SSE 13 17 7 9 1008.0 1008.0 0.0
06/08:30pm 23.8 21.4 8.6 38 8.1 ESE 11 13 6 7 1007.1 1007.1 0.0
06/08:00pm 25.0 21.4 5.2 28 10.1 SW 13 19 7 10 1006.3 1006.3 0.0
06/07:30pm 25.8 21.6 3.7 24 11.0 SSW 15 20 8 11 1005.6 1005.6 0.0
06/07:00pm 27.5 22.8 3.2 21 12.1 SW 17 24 9 13 1004.9 1004.9 0.0
06/06:30pm 28.5 23.6 1.9 18 13.0 SW 17 28 9 15 1004.5 1004.5 0.0
06/05:30pm 29.4 23.9 1.8 17 13.5 WSW 20 28 11 15 1003.9 1003.9 0.0
06/05:00pm 29.6 23.2 1.1 16 13.9 WSW 24 32 13 17 1003.6 1003.6 0.0
06/04:30pm 29.8 23.8 1.3 16 13.9 WSW 22 32 12 17 1003.6 1003.6 0.0
06/04:00pm 29.7 23.2 0.3 15 14.1 SW 24 41 13 22 1003.5 1003.5 0.0
06/03:30pm 29.7 24.1 1.2 16 13.9 WSW 20 30 11 16 1003.6 1003.6 0.0
06/03:00pm 29.3 23.4 1.7 17 13.6 WSW 22 33 12 18 1003.9 1003.9 0.0
06/02:30pm 28.9 23.1 2.2 18 13.1 WSW 22 32 12 17 1004.5 1004.5 0.0
06/02:00pm 28.5 22.3 1.9 18 13.0 SW 24 32 13 17 1004.8 1004.8 0.0
06/01:30pm 27.7 20.8 2.7 20 12.3 WSW 28 39 15 21 1005.1 1005.1 0.0
06/01:00pm 27.5 21.4 0.3 17 12.9 WSW 22 43 12 23 1005.5 1005.5 0.0
06/12:30pm 25.8 18.7 -1.1 17 12.2 W 26 41 14 22 1006.2 1006.2 0.0
06/11:30am 24.1 17.7 -1.7 18 11.4 W 22 33 12 18 1007.1 1007.1 0.0
06/11:00am 23.4 17.3 0.5 22 10.5 W 22 32 12 17 1007.4 1007.4 0.0
06/10:30am 21.7 15.9 -0.3 23 9.8 WSW 20 30 11 16 1007.5 1007.5 0.0
06/10:00am 21.4 15.2 -0.6 23 9.7 WSW 22 33 12 18 1007.6 1007.6 0.0
06/09:30am 20.6 14.8 -0.1 25 9.2 WNW 20 32 11 17 1007.7 1007.7 0.0
06/09:00am 19.8 15.1 3.1 33 7.9 WNW 17 22 9 12 1007.9 1007.9 0.0
06/08:30am 17.9 14.1 7.6 51 5.2 NNW 17 22 9 12 1008.0 1008.0 0.0
06/08:00am 16.1 13.5 9.3 64 3.5 NNW 13 17 7 9 1008.3 1008.3 0.0
06/07:30am 14.5 13.4 9.9 74 2.4 NNW 6 17 3 9 1008.2 1008.2 0.0
06/07:00am 13.5 11.8 9.7 78 2.0 NW 9 13 5 7 1008.2 1008.2 0.0
06/06:30am 13.5 12.4 10.7 83 1.5 NNW 7 9 4 5 1008.3 1008.3 0.0
06/05:30am 12.7 11.3 9.5 81 1.6 NW 7 7 4 4 1008.7 1008.7 0.0
06/05:00am 12.7 11.1 8.8 77 2.0 NNW 7 7 4 4 1008.8 1008.8 0.0
06/04:30am 12.5 12.4 9.3 81 1.6 CALM 0 0 0 0 1009.2 1009.2 0.0
06/04:00am 13.3 13.3 9.9 80 1.8 CALM 0 0 0 0 1009.7 1009.7 0.0
06/03:30am 12.8 12.6 8.9 77 2.0 CALM 0 0 0 0 1010.1 1010.1 0.0
06/03:00am 13.7 13.6 9.6 76 2.1 CALM 0 0 0 0 1010.4 1010.4 0.0
06/02:30am 14.2 14.1 9.6 74 2.4 CALM 0 0 0 0 1010.8 1010.8 0.0
06/02:00am 14.4 13.2 9.6 73 2.5 SW 6 7 3 4 1011.3 1011.3 0.0
06/01:30am 15.3 14.4 9.4 68 3.0 WSW 4 7 2 4 1011.8 1011.8 0.0
06/01:00am 15.6 15.1 9.5 67 3.2 SW 2 7 1 4 1012.2 1012.2 0.0
06/12:30am 16.7 16.6 9.4 62 3.8 CALM 0 0 0 0 1012.3 1012.3 0.0
06/12:00am 17.1 15.7 9.0 59 4.2 SW 6 7 3 4 1012.6 1012.6 0.0
 
Date/Time
EDT
Tmp

°C
App
Tmp
°C
Dew
Point
°C
Rel
Hum
%
Delta-T

°C
Wind Press
QNH
hPa
Press
MSL
hPa
Rain
since
9 am
mm
Dir
 
Spd
km/h
Gust
km/h
Spd
kts
Gust
kts
05/11:30pm 16.8 15.1 8.5 58 4.2 SW 7 9 4 5 1012.9 1012.9 0.0
05/11:00pm 17.0 14.2 8.7 58 4.3 W 13 15 7 8 1013.0 1013.0 0.0
05/10:30pm 17.8 16.3 9.2 57 4.5 SW 7 11 4 6 1012.9 1012.9 0.0
05/10:00pm 18.2 16.7 9.0 55 4.8 SW 7 9 4 5 1013.1 1013.1 0.0
05/09:30pm 19.4 17.8 8.7 50 5.6 S 7 11 4 6 1013.0 1013.0 0.0
05/09:00pm 19.6 17.2 8.6 49 5.7 SSE 11 13 6 7 1012.6 1012.6 0.0
05/08:30pm 19.8 16.9 8.2 47 6.0 SSE 13 19 7 10 1012.0 1012.0 0.0
05/08:00pm 20.3 16.0 7.7 44 6.5 SSE 20 28 11 15 1011.5 1011.5 0.0
05/07:30pm 20.3 15.2 7.7 44 6.5 SE 24 33 13 18 1011.2 1011.2 0.0
05/07:00pm 21.2 15.3 5.9 37 7.7 SE 26 37 14 20 1010.8 1010.8 0.0
05/06:30pm 21.7 15.5 6.0 36 7.9 SE 28 37 15 20 1010.2 1010.2 0.0
05/06:00pm 22.2 15.2 6.0 35 8.2 SE 32 43 17 23 1009.7 1009.7 0.0
05/05:30pm 22.5 15.5 5.9 34 8.4 SE 32 43 17 23 1009.3 1009.3 0.0
05/05:00pm 23.2 16.1 6.5 34 8.6 SE 33 46 18 25 1008.9 1008.9 0.0
05/04:45pm 23.2 15.9 7.3 36 8.3 SE 35 54 19 29 1008.9 1008.9 0.0
05/04:30pm 23.1 15.1 7.6 37 8.1 SE 39 50 21 27 1008.8 1008.8 0.0
05/04:00pm 23.6 16.2 8.5 38 8.1 SE 37 48 20 26 1008.7 1008.7 0.0
05/03:38pm 23.4 17.0 9.4 41 7.6 SE 33 52 18 28 1008.6 1008.6 0.0
05/03:30pm 24.2 17.7 10.5 42 7.6 SE 35 50 19 27 1008.6 1008.6 0.0
05/03:00pm 23.8 17.3 11.8 47 6.8 SSE 37 46 20 25 1008.4 1008.4 0.0
05/02:30pm 24.9 19.2 13.1 48 6.9 SE 35 44 19 24 1008.4 1008.4 0.0
05/02:00pm 24.9 19.2 11.8 44 7.5 SE 33 44 18 24 1008.1 1008.1 0.0
05/01:43pm 25.4 20.5 12.6 45 7.4 SSE 30 43 16 23 1008.1 1008.1 0.0
05/01:30pm 27.3 19.7 3.1 21 12.0 SW 32 43 17 23 1008.0 1008.0 0.0
05/01:00pm 27.4 21.5 3.8 22 11.9 SW 24 46 13 25 1007.8 1007.8 0.0
05/12:30pm 27.0 22.3 5.9 26 10.9 SW 20 33 11 18 1007.7 1007.7 0.0
05/12:00pm 26.2 21.4 4.6 25 10.9 SSW 19 32 10 17 1007.9 1007.9 0.0
05/11:30am 25.4 22.0 6.1 29 10.0 S 13 22 7 12 1008.0 1008.0 0.0
05/11:00am 24.8 20.5 5.1 28 10.0 SW 17 24 9 13 1007.9 1007.9 0.0
05/10:30am 25.1 21.2 5.3 28 10.0 SSW 15 20 8 11 1007.5 1007.5 0.0
05/10:00am 25.0 20.7 3.0 24 10.7 WSW 15 24 8 13 1006.8 1006.8 0.0
05/09:30am 24.9 20.6 3.5 25 10.5 WSW 15 24 8 13 1006.4 1006.4 0.0
05/09:00am 22.8 21.0 8.1 39 7.8 S 7 15 4 8 1006.3 1006.3 0.0
05/08:30am 20.9 21.0 12.6 59 4.7 WNW 4 17 2 9 1005.8 1005.8 0.0
05/08:00am 19.2 19.7 15.1 77 2.4 SW 6 9 3 5 1005.9 1005.9 0.0
05/07:30am 18.2 19.6 16.5 90 1.0 SSE 4 9 2 5 1005.8 1005.8 0.0
05/07:05am 16.6 17.1 15.0 90 0.9 SE 6 9 3 5 1005.4 1005.4 0.0
05/07:00am 16.8 18.1 15.2 90 0.9 ESE 2 7 1 4 1005.2 1005.2 0.0
05/06:53am 16.8 18.5 15.2 90 0.9 CALM 0 0 0 0 1005.0 1005.0 0.0
05/06:46am 17.0 18.7 15.3 90 1.0 CALM 0 0 0 0 1005.2 1005.2 0.0
05/06:30am 17.2 17.9 15.5 90 1.0 S 6 9 3 5 1005.1 1005.1 0.0
05/06:25am 16.8 16.8 15.2 90 0.9 S 9 13 5 7 1005.1 1005.1 0.0
05/06:21am 16.7 16.6 14.9 89 1.0 S 9 13 5 7 1005.1 1005.1 0.0
05/06:00am 18.0 19.4 16.3 90 1.0 N 4 6 2 3 1004.7 1004.7 0.0
05/05:30am 17.5 19.0 15.7 89 1.1 N 2 7 1 4 1004.5 1004.5 0.0
05/05:20am 18.4 19.5 16.7 90 1.0 N 6 6 3 3 1004.5 1004.5 0.0
05/05:00am 17.9 18.8 16.1 89 1.1 N 6 7 3 4 1004.5 1004.5 0.0
05/04:30am 19.0 20.3 17.1 89 1.2 N 6 6 3 3 1004.6 1004.6 0.0
05/04:23am 19.2 21.0 17.3 89 1.2 N 4 6 2 3 1004.7 1004.7 0.0
05/04:03am 18.9 21.3 17.0 89 1.1 CALM 0 0 0 0 1005.1 1005.1 0.0
05/04:00am 18.9 21.3 17.0 89 1.2 CALM 0 0 0 0 1005.1 1005.1 0.0
05/03:30am 18.8 20.4 16.8 88 1.2 NNE 4 6 2 3 1005.4 1005.4 0.0
05/03:16am 19.8 22.6 17.9 89 1.2 CALM 0 0 0 0 1005.5 1005.5 0.0
05/03:00am 18.9 21.3 16.9 88 1.2 CALM 0 0 0 0 1005.8 1005.8 0.0
05/02:30am 19.1 21.5 17.1 88 1.2 CALM 0 0 0 0 1006.0 1006.0 0.0
05/02:00am 19.8 22.4 17.6 87 1.4 CALM 0 0 0 0 1006.5 1006.5 0.0
05/01:46am 20.0 22.7 17.8 87 1.4 CALM 0 0 0 0 1006.6 1006.6 0.0
05/01:30am 20.3 23.2 18.1 87 1.4 CALM 0 0 0 0 1006.9 1006.9 0.0
05/01:00am 20.2 22.9 17.8 86 1.5 CALM 0 0 0 0 1007.5 1007.5 0.0
05/12:30am 21.0 24.0 18.4 85 1.6 CALM 0 0 0 0 1007.8 1007.8 0.0
05/12:00am 21.1 24.0 18.1 83 1.9 CALM 0 0 0 0 1008.1 1008.1 0.0
 
Date/Time
EDT
Tmp

°C
App
Tmp
°C
Dew
Point
°C
Rel
Hum
%
Delta-T

°C
Wind Press
QNH
hPa
Press
MSL
hPa
Rain
since
9 am
mm
Dir
 
Spd
km/h
Gust
km/h
Spd
kts
Gust
kts
04/11:30pm 21.0 22.9 17.6 81 2.1 NNE 4 6 2 3 1008.3 1008.3 0.0
04/11:00pm 22.2 25.0 18.0 77 2.6 CALM 0 0 0 0 1008.7 1008.7 0.0
04/10:30pm 23.2 24.9 18.5 75 3.0 NE 7 9 4 5 1008.7 1008.7 0.0
04/10:00pm 23.7 25.6 18.6 73 3.2 ESE 6 9 3 5 1008.9 1008.9 0.0
04/09:30pm 23.9 25.7 18.3 71 3.5 NE 6 7 3 4 1009.0 1009.0 0.0
04/09:00pm 24.2 25.6 18.6 71 3.5 E 9 11 5 6 1008.7 1008.7 0.0
04/08:30pm 24.5 25.6 18.9 71 3.6 ESE 11 13 6 7 1008.3 1008.3 0.0
04/08:00pm 25.0 26.5 18.9 69 3.9 ENE 9 15 5 8 1008.1 1008.1 0.0
04/07:30pm 25.5 25.6 18.4 65 4.5 E 15 19 8 10 1008.0 1008.0 0.0
04/07:00pm 25.9 25.5 18.1 62 4.9 ENE 17 22 9 12 1007.8 1007.8 0.0
04/06:30pm 27.1 26.9 18.4 59 5.5 E 17 22 9 12 1007.8 1007.8 0.0
04/06:00pm 27.9 26.8 17.7 53 6.5 E 20 30 11 16 1007.8 1007.8 0.0
04/05:30pm 28.4 27.2 17.6 52 6.8 E 20 24 11 13 1007.9 1007.9 0.0
04/05:00pm 28.9 28.0 18.1 52 6.9 E 20 24 11 13 1008.0 1008.0 0.0
04/04:30pm 29.0 28.5 17.8 50 7.1 E 17 26 9 14 1008.2 1008.2 0.0
04/04:00pm 28.9 28.2 17.4 49 7.3 E 17 24 9 13 1008.8 1008.8 0.0
04/03:30pm 28.9 27.8 17.4 49 7.3 ESE 19 26 10 14 1009.0 1009.0 0.0
04/03:00pm 29.0 28.5 17.8 50 7.1 ENE 17 24 9 13 1009.5 1009.5 0.0
04/02:30pm 28.4 29.0 17.6 52 6.8 E 11 17 6 9 1010.0 1010.0 0.0
04/02:00pm 29.1 30.5 17.9 50 7.1 NE 7 13 4 7 1010.4 1010.4 0.0
04/01:30pm 27.9 29.4 17.7 53 6.4 NE 6 11 3 6 1011.0 1011.0 0.0
04/01:00pm 27.4 28.7 17.6 55 6.2 NNE 7 15 4 8 1011.3 1011.3 0.0
04/12:30pm 27.6 29.3 18.6 58 5.8 NNE 7 13 4 7 1012.1 1012.1 0.0
04/12:00pm 25.8 28.0 17.4 59 5.2 NNW 2 13 1 7 1012.6 1012.6 0.0
04/11:30am 25.4 26.9 17.6 62 4.9 NNW 6 9 3 5 1013.0 1013.0 0.0
04/11:00am 25.1 26.8 18.1 65 4.4 S 6 7 3 4 1013.4 1013.4 0.0
04/10:30am 24.7 25.9 18.2 67 4.1 SW 9 13 5 7 1013.8 1013.8 0.0
04/10:00am 24.4 25.8 17.9 67 4.1 SSW 7 13 4 7 1013.6 1013.6 0.0
04/09:30am 23.5 24.2 17.0 67 4.0 SSE 9 20 5 11 1013.7 1013.7 0.0
04/09:00am 23.6 24.8 17.3 67 3.9 SSE 7 11 4 6 1013.6 1013.6 0.0
04/08:30am 22.5 23.7 16.8 70 3.5 SSW 6 9 3 5 1013.5 1013.5 0.0
04/08:00am 21.6 22.7 17.2 76 2.7 SW 7 9 4 5 1013.3 1013.3 0.0
04/07:30am 20.8 21.4 16.8 78 2.4 SW 9 9 5 5 1013.2 1013.2 0.0
04/07:00am 20.9 22.1 16.9 78 2.4 SW 6 7 3 4 1012.7 1012.7 0.0
04/06:30am 21.2 21.8 16.8 76 2.7 SSE 9 13 5 7 1012.6 1012.6 0.0
04/06:00am 21.4 21.6 16.8 75 2.8 SSE 11 17 6 9 1012.6 1012.6 0.0
04/05:30am 21.7 22.0 16.9 74 2.9 SE 11 15 6 8 1012.5 1012.5 0.0
04/05:00am 21.7 22.0 16.9 74 2.9 SE 11 15 6 8 1012.5 1012.5 0.0

Latest Capital City Observations: Canberra | Sydney | Melbourne | Brisbane | Adelaide | Perth | Hobart | Darwin

Other Formats:

Comma delimited format used in spreadsheet applications
http://www.bom.gov.au/fwo/IDN60901/IDN60901.94765.axf

JavaScript Object Notation format (JSON) in row-major order
http://www.bom.gov.au/fwo/IDN60901/IDN60901.94765.json